Time;durP1;ratioP1;P1;durP2;ratioP2;P2;SDS_P1;SDS_P2;PMS_P1;PMS_P2;Temp;Humidity;BMP_temperature;BMP_pressure;BME280_temperature;BME280_humidity;BME280_pressure;Samples;Min_cycle;Max_cycle;Signal;HPM_P1;HPM_P2
2022/05/14 00:00:50;;;;;;;41.65;10.68;;;;;;;10.06;86.26;99615.28;5084962;28;20024;-63
2022/05/14 00:03:16;;;;;;;35.25;10.68;;;;;;;10.08;86.39;99616.06;5084994;28;20084;-64
2022/05/14 00:05:42;;;;;;;47.00;10.60;;;;;;;10.16;86.29;99624.56;5084884;28;20564;-64
2022/05/14 00:08:08;;;;;;;41.72;10.70;;;;;;;10.19;86.35;99626.28;5085052;28;20028;-64
2022/05/14 00:13:03;;;;;;;40.20;10.10;;;;;;;10.21;86.31;99621.88;5066781;28;20086;-64
2022/05/14 00:13:20;;;;;;;36.58;9.07;;;;;;;10.22;86.54;99614.97;5084653;28;20043;-64
2022/05/14 00:15:46;;;;;;;37.63;11.02;;;;;;;10.27;86.83;99623.53;5084961;28;20073;-64
2022/05/14 00:18:11;;;;;;;37.10;10.27;;;;;;;10.29;86.58;99622.59;5084881;28;20104;-64
2022/05/14 00:20:38;;;;;;;28.95;6.93;;;;;;;10.28;86.52;99614.84;5084651;28;20028;-65
2022/05/14 00:23:05;;;;;;;40.72;8.95;;;;;;;10.27;86.42;99616.56;5084605;28;20131;-64
2022/05/14 00:25:31;;;;;;;38.10;8.82;;;;;;;10.28;86.51;99615.72;5084474;28;20178;-64
2022/05/14 00:27:57;;;;;;;31.30;8.60;;;;;;;10.33;86.33;99618.22;5084490;28;20020;-65
2022/05/14 00:30:26;;;;;;;39.53;7.88;;;;;;;10.31;86.41;99613.91;5084352;28;20013;-64
2022/05/14 00:32:52;;;;;;;37.67;8.65;;;;;;;10.33;86.31;99610.41;5084283;28;20085;-64
2022/05/14 00:35:18;;;;;;;45.97;9.57;;;;;;;10.43;86.44;99623.22;5084301;28;20031;-64
2022/05/14 00:37:44;;;;;;;43.17;10.25;;;;;;;10.46;85.92;99623.13;5084457;28;20068;-64
2022/05/14 00:40:13;;;;;;;32.85;8.98;;;;;;;10.48;86.16;99613.63;5084148;28;20451;-65
2022/05/14 00:42:39;;;;;;;30.42;9.10;;;;;;;10.50;86.05;99617.03;5084611;28;20028;-65
2022/05/14 00:45:07;;;;;;;16.05;5.57;;;;;;;10.51;85.67;99606.59;5084531;28;20317;-65
2022/05/14 00:47:35;;;;;;;28.58;5.43;;;;;;;10.48;85.82;99622.25;5084891;28;20132;-64
2022/05/14 00:50:22;;;;;;;44.08;8.52;;;;;;;10.50;85.88;99630.00;5084334;28;20511;-65
2022/05/14 00:52:48;;;;;;;39.78;8.30;;;;;;;10.49;86.04;99615.31;5082664;28;20133;-64
2022/05/14 00:55:13;;;;;;;42.60;9.52;;;;;;;10.55;85.99;99620.38;5083789;28;20036;-65
2022/05/14 00:57:41;;;;;;;48.00;9.30;;;;;;;10.54;86.12;99614.31;5084199;28;20016;-65
2022/05/14 01:00:10;;;;;;;41.50;8.70;;;;;;;10.60;85.65;99622.88;5083893;28;20028;-64
2022/05/14 01:02:37;;;;;;;46.70;9.65;;;;;;;10.63;85.70;99630.59;5084144;28;20016;-65
2022/05/14 01:05:03;;;;;;;41.85;9.68;;;;;;;10.66;85.55;99617.56;5083871;28;20017;-65
2022/05/14 01:07:29;;;;;;;46.97;9.32;;;;;;;10.77;85.39;99623.38;5084001;28;20024;-65
2022/05/14 01:10:01;;;;;;;31.83;8.05;;;;;;;10.78;84.47;99627.66;5084027;28;20020;-64
2022/05/14 01:12:29;;;;;;;43.42;8.90;;;;;;;10.82;83.81;99637.97;5083533;28;20028;-65
2022/05/14 01:14:54;;;;;;;50.13;10.40;;;;;;;10.83;83.80;99631.91;5083735;28;20028;-65
2022/05/14 01:17:20;;;;;;;42.95;8.27;;;;;;;10.81;83.23;99624.16;5083651;28;20031;-65
2022/05/14 01:19:46;;;;;;;37.35;7.18;;;;;;;10.75;82.72;99621.72;5083803;28;20025;-68
2022/05/14 01:22:49;;;;;;;43.28;9.23;;;;;;;10.74;82.77;99633.81;5083389;28;20031;-68
2022/05/14 01:28:09;;;;;;;40.58;8.40;;;;;;;10.61;83.17;99648.81;5083526;28;20051;-68
2022/05/14 01:30:43;;;;;;;36.60;8.32;;;;;;;10.56;82.94;99632.47;5083671;28;20075;-67
2022/05/14 01:33:09;;;;;;;30.45;7.35;;;;;;;10.63;82.91;99636.66;5083820;28;20027;-67
2022/05/14 01:35:36;;;;;;;40.13;8.60;;;;;;;10.63;82.54;99618.47;5083490;28;20016;-70
2022/05/14 01:38:03;;;;;;;38.10;8.45;;;;;;;10.51;82.21;99621.34;5083073;28;20556;-68
2022/05/14 01:40:29;;;;;;;45.22;8.60;;;;;;;10.55;82.24;99630.75;5083175;28;20032;-68
2022/05/14 01:42:54;;;;;;;29.55;7.05;;;;;;;10.50;82.14;99622.22;5083510;28;20031;-68
2022/05/14 01:45:20;;;;;;;32.83;6.95;;;;;;;10.46;81.96;99630.94;5083121;28;20021;-67
2022/05/14 01:47:45;;;;;;;28.92;6.25;;;;;;;10.34;81.53;99637.19;5083408;28;20024;-67
2022/05/14 01:50:11;;;;;;;34.22;6.70;;;;;;;10.23;81.33;99637.41;5083255;28;20047;-67
2022/05/14 01:52:36;;;;;;;32.03;6.25;;;;;;;10.07;81.60;99627.34;5083023;28;20025;-67
2022/05/14 01:55:02;;;;;;;35.42;6.68;;;;;;;10.03;81.56;99633.47;5083049;28;20156;-68
2022/05/14 01:57:27;;;;;;;36.33;6.30;;;;;;;9.96;82.31;99639.66;5082712;28;20024;-68
2022/05/14 01:59:52;;;;;;;37.50;7.13;;;;;;;9.89;82.55;99634.56;5082867;28;20384;-67
2022/05/14 02:02:17;;;;;;;36.25;8.23;;;;;;;9.95;82.98;99632.75;5065009;28;20027;-67
2022/05/14 02:04:43;;;;;;;40.72;8.07;;;;;;;10.01;83.01;99643.03;5082971;28;20028;-68
2022/05/14 02:07:08;;;;;;;38.88;7.65;;;;;;;9.99;83.00;99624.91;5065076;28;20028;-68
2022/05/14 02:09:33;;;;;;;36.30;5.82;;;;;;;10.03;82.85;99623.09;5082924;28;20039;-67
2022/05/14 02:12:01;;;;;;;39.17;8.48;;;;;;;10.03;83.03;99636.06;5082741;28;20024;-68
2022/05/14 02:14:26;;;;;;;41.92;8.00;;;;;;;10.05;83.08;99644.66;5082835;28;20032;-67
2022/05/14 02:16:51;;;;;;;34.67;8.50;;;;;;;10.06;83.41;99648.13;5082759;28;20050;-68
2022/05/14 02:19:17;;;;;;;39.70;7.03;;;;;;;10.11;83.18;99649.72;5082867;28;20159;-68
2022/05/14 02:21:42;;;;;;;41.13;7.32;;;;;;;10.10;83.40;99642.84;5082808;28;20051;-67
2022/05/14 02:24:07;;;;;;;41.35;8.82;;;;;;;10.15;83.15;99648.81;5082711;28;20032;-68
2022/05/14 02:26:33;;;;;;;44.42;7.15;;;;;;;10.16;83.28;99641.84;5082480;28;20106;-68
2022/05/14 02:28:58;;;;;;;42.75;7.88;;;;;;;10.21;83.10;99644.41;5082601;28;20027;-67
2022/05/14 02:31:24;;;;;;;47.42;9.35;;;;;;;10.24;82.80;99644.34;5082711;28;20028;-67
2022/05/14 02:33:49;;;;;;;45.40;7.53;;;;;;;10.22;82.70;99646.09;5082361;28;20020;-67
2022/05/14 02:36:16;;;;;;;36.10;7.57;;;;;;;10.26;82.61;99663.31;5064397;28;20039;-68
2022/05/14 02:38:42;;;;;;;40.70;8.63;;;;;;;10.22;82.81;99659.94;5082450;28;20179;-68
2022/05/14 02:41:08;;;;;;;41.80;8.00;;;;;;;10.26;82.75;99658.09;5082392;28;20052;-68
2022/05/14 02:43:34;;;;;;;43.35;8.13;;;;;;;10.24;82.65;99659.91;5082880;28;20028;-68
2022/05/14 02:46:00;;;;;;;28.95;7.38;;;;;;;10.25;82.63;99659.00;5082528;28;20031;-68
2022/05/14 02:48:26;;;;;;;42.67;7.65;;;;;;;10.24;82.66;99663.31;5082648;28;20262;-67
2022/05/14 02:50:51;;;;;;;39.33;8.10;;;;;;;10.25;82.67;99649.50;5082712;28;20139;-67
2022/05/14 02:53:17;;;;;;;39.80;6.28;;;;;;;10.27;82.38;99659.84;5082528;28;20020;-68
2022/05/14 02:55:42;;;;;;;31.52;8.88;;;;;;;10.27;82.29;99657.25;5082398;28;20016;-69
2022/05/14 02:58:08;;;;;;;35.80;6.03;;;;;;;10.29;82.27;99650.25;5082585;28;20023;-69
2022/05/14 03:00:33;;;;;;;39.20;7.63;;;;;;;10.31;81.97;99664.06;5082328;28;20100;-67
2022/05/14 03:02:58;;;;;;;33.40;7.28;;;;;;;10.28;81.95;99661.53;5082684;28;20021;-68
2022/05/14 03:05:24;;;;;;;31.92;4.85;;;;;;;10.27;81.91;99667.63;5082379;28;20480;-68
2022/05/14 03:07:50;;;;;;;33.92;7.55;;;;;;;10.31;81.43;99661.47;5082409;28;20020;-69
2022/05/14 03:10:16;;;;;;;39.05;7.00;;;;;;;10.28;81.60;99661.53;5082385;28;20013;-68
2022/05/14 03:12:41;;;;;;;27.27;7.03;;;;;;;10.27;81.25;99665.03;5082134;28;20082;-69
2022/05/14 03:15:09;;;;;;;36.65;5.80;;;;;;;10.32;81.51;99681.34;5082373;28;20021;-68
2022/05/14 03:17:35;;;;;;;40.28;6.80;;;;;;;10.32;81.46;99673.56;5086082;28;20173;-67
2022/05/14 03:20:12;;;;;;;28.10;6.13;;;;;;;10.36;81.12;99671.75;5085939;28;20061;-67
2022/05/14 03:22:39;;;;;;;35.40;6.78;;;;;;;10.37;80.84;99676.06;5086063;28;20035;-68
2022/05/14 03:25:06;;;;;;;34.75;6.25;;;;;;;10.30;81.01;99670.16;5085818;28;20517;-68
2022/05/14 03:27:32;;;;;;;33.60;6.53;;;;;;;10.32;80.83;99673.56;5085601;28;20020;-68
2022/05/14 03:29:57;;;;;;;35.80;6.47;;;;;;;10.29;80.90;99673.63;5085937;28;20046;-68
2022/05/14 03:32:24;;;;;;;26.80;5.65;;;;;;;10.26;80.71;99669.34;5085895;28;20051;-68
2022/05/14 03:34:50;;;;;;;27.23;4.68;;;;;;;10.23;80.79;99672.00;5085808;28;20110;-68
2022/05/14 03:37:15;;;;;;;29.52;5.75;;;;;;;10.22;80.67;99652.16;5085627;28;20043;-69
2022/05/14 03:39:41;;;;;;;29.13;6.10;;;;;;;10.24;80.56;99675.47;5085922;28;20488;-68
2022/05/14 03:42:06;;;;;;;36.50;6.93;;;;;;;10.27;80.16;99680.59;5085355;28;20017;-69
2022/05/14 03:44:32;;;;;;;36.13;8.85;;;;;;;10.26;80.40;99676.28;5085623;28;20337;-68
2022/05/14 03:46:57;;;;;;;37.45;5.55;;;;;;;10.24;80.33;99675.47;5085509;28;20021;-68
2022/05/14 03:49:23;;;;;;;35.53;7.97;;;;;;;10.25;80.53;99679.75;5067395;28;20035;-69
2022/05/14 03:51:48;;;;;;;41.97;6.93;;;;;;;10.26;80.89;99686.66;5085539;28;20021;-69
2022/05/14 03:54:13;;;;;;;35.63;7.18;;;;;;;10.28;80.54;99670.19;5085654;28;20045;-69
2022/05/14 03:56:39;;;;;;;34.80;7.18;;;;;;;10.31;80.83;99678.78;5085243;28;20092;-68
2022/05/14 03:59:06;;;;;;;26.65;4.95;;;;;;;10.29;80.81;99679.66;5085496;28;20016;-68
2022/05/14 04:01:31;;;;;;;40.53;6.38;;;;;;;10.30;80.60;99675.34;5085480;28;20031;-69
2022/05/14 04:03:56;;;;;;;34.65;6.88;;;;;;;10.37;80.29;99676.91;5085382;28;20056;-69
2022/05/14 04:06:22;;;;;;;39.72;6.40;;;;;;;10.39;80.72;99675.16;5085136;28;20021;-69
2022/05/14 04:08:47;;;;;;;27.05;5.35;;;;;;;10.40;80.26;99679.47;5085236;28;20036;-69
2022/05/14 04:11:12;;;;;;;34.88;6.03;;;;;;;10.46;80.17;99675.94;5066621;28;20031;-68
2022/05/14 04:13:38;;;;;;;33.15;6.28;;;;;;;10.38;80.03;99676.03;5085134;28;20107;-69
2022/05/14 04:16:03;;;;;;;33.08;6.78;;;;;;;10.29;80.08;99673.63;5084831;28;20090;-69
2022/05/14 04:18:29;;;;;;;36.75;7.38;;;;;;;10.35;79.98;99686.47;5085032;28;20024;-69
2022/05/14 04:20:56;;;;;;;31.70;5.38;;;;;;;10.41;80.03;99695.88;5084825;28;20028;-69
2022/05/14 04:23:24;;;;;;;47.30;6.95;;;;;;;10.39;79.82;99695.91;5084804;28;20029;-68
2022/05/14 04:25:50;;;;;;;30.10;5.55;;;;;;;10.41;79.72;99694.13;5084610;28;20021;-68
2022/05/14 04:28:16;;;;;;;29.90;5.07;;;;;;;10.31;79.80;99703.00;5083572;28;20126;-67
2022/05/14 04:30:42;;;;;;;24.02;4.90;;;;;;;10.35;79.75;99707.22;5084526;28;20020;-68
2022/05/14 04:33:07;;;;;;;32.60;5.97;;;;;;;10.36;79.48;99705.50;5084747;28;20024;-68
2022/05/14 04:35:32;;;;;;;27.83;6.72;;;;;;;10.35;79.44;99709.81;5084785;28;20028;-68
2022/05/14 04:37:58;;;;;;;30.23;7.28;;;;;;;10.35;79.44;99704.63;5084386;28;20078;-68
2022/05/14 04:40:24;;;;;;;28.73;6.03;;;;;;;10.41;79.70;99719.25;5084367;28;20017;-68
2022/05/14 04:42:49;;;;;;;27.35;4.40;;;;;;;10.43;79.65;99716.63;5066380;28;20020;-68
2022/05/14 04:45:15;;;;;;;32.42;7.05;;;;;;;10.45;79.46;99717.47;5084427;28;20017;-68
2022/05/14 04:47:41;;;;;;;21.55;4.28;;;;;;;10.47;79.41;99719.16;5084490;28;20035;-68
2022/05/14 04:50:08;;;;;;;28.77;5.13;;;;;;;10.46;79.22;99722.66;5084476;28;20498;-69
2022/05/14 04:52:34;;;;;;;23.10;6.07;;;;;;;10.47;79.22;99729.53;5084216;28;20388;-69
2022/05/14 04:54:59;;;;;;;28.45;3.92;;;;;;;10.43;79.60;99729.59;5084113;28;20020;-69
2022/05/14 04:57:24;;;;;;;28.05;5.88;;;;;;;10.51;79.39;99725.16;5083836;28;20061;-69
2022/05/14 04:59:50;;;;;;;27.58;4.80;;;;;;;10.48;79.42;99705.28;5083971;28;20040;-69
2022/05/14 05:04:59;;;;;;;24.73;4.72;;;;;;;10.59;78.82;99720.66;5084157;28;20104;-69
2022/05/14 05:07:24;;;;;;;29.25;5.32;;;;;;;10.64;78.60;99724.00;5083993;28;20017;-69
2022/05/14 05:09:50;;;;;;;30.10;5.30;;;;;;;10.52;78.84;99711.28;5083814;28;20032;-68
2022/05/14 05:12:15;;;;;;;30.92;5.30;;;;;;;10.66;78.49;99735.22;5065589;28;20102;-68
2022/05/14 05:14:41;;;;;;;31.33;4.53;;;;;;;10.72;78.39;99729.06;5065496;28;20046;-69
2022/05/14 05:17:07;;;;;;;19.92;4.00;;;;;;;10.68;78.40;99726.53;5083487;28;20035;-68
2022/05/14 05:19:33;;;;;;;23.05;4.70;;;;;;;10.72;77.84;99749.00;5083643;28;20032;-68
2022/05/14 05:21:58;;;;;;;34.85;4.97;;;;;;;10.72;77.71;99743.78;5083512;28;20029;-68
2022/05/14 05:24:23;;;;;;;19.52;4.30;;;;;;;10.75;77.67;99751.53;5083362;28;20039;-68
2022/05/14 05:26:49;;;;;;;25.40;5.28;;;;;;;10.76;77.45;99746.28;5083397;28;20154;-68
2022/05/14 05:29:14;;;;;;;32.03;5.13;;;;;;;10.82;77.56;99760.03;5083230;28;20021;-68
2022/05/14 05:31:39;;;;;;;24.25;5.55;;;;;;;10.92;77.48;99745.97;5083723;28;20050;-68
2022/05/14 05:34:05;;;;;;;30.88;5.90;;;;;;;11.00;77.18;99758.81;5083497;28;20042;-68
2022/05/14 05:36:31;;;;;;;36.17;5.93;;;;;;;11.23;77.35;99744.47;5083042;28;20099;-68
2022/05/14 05:38:58;;;;;;;30.45;4.40;;;;;;;11.56;76.71;99757.59;5082931;28;20048;-67
2022/05/14 05:41:25;;;;;;;24.35;5.57;;;;;;;11.97;75.92;99764.44;5083214;28;20024;-68
2022/05/14 05:43:50;;;;;;;21.23;3.95;;;;;;;12.24;74.35;99772.47;5083588;28;20074;-67
2022/05/14 05:46:16;;;;;;;25.35;4.95;;;;;;;12.48;74.47;99767.53;5082958;28;20032;-68
2022/05/14 05:48:42;;;;;;;20.20;5.15;;;;;;;12.97;74.15;99761.88;5083072;28;20024;-68
2022/05/14 05:51:08;;;;;;;20.45;4.97;;;;;;;13.53;72.96;99767.22;5083162;28;20048;-68
2022/05/14 05:59:04;;;;;;;21.02;4.80;;;;;;;14.66;65.94;99786.13;5083303;28;20117;-68
2022/05/14 06:01:30;;;;;;;24.88;4.40;;;;;;;14.96;65.25;99772.03;5083165;28;20146;-69
2022/05/14 06:03:56;;;;;;;19.63;4.30;;;;;;;15.47;63.30;99772.72;5083076;28;20032;-69
2022/05/14 06:06:21;;;;;;;12.27;3.28;;;;;;;16.06;61.38;99781.78;5082926;28;20020;-71
2022/05/14 06:08:49;;;;;;;20.50;4.15;;;;;;;16.52;59.24;99786.00;5083044;28;20025;-69
2022/05/14 06:11:16;;;;;;;16.83;3.95;;;;;;;16.79;57.86;99783.91;5064441;28;20453;-70
2022/05/14 06:13:43;;;;;;;18.27;3.80;;;;;;;17.16;57.31;99793.69;5082622;28;20480;-69
2022/05/14 06:16:09;;;;;;;14.73;3.40;;;;;;;17.35;54.83;99796.31;5082591;28;20020;-69
2022/05/14 06:18:35;;;;;;;17.23;3.33;;;;;;;17.48;54.61;99796.59;5082646;28;20153;-71
2022/05/14 06:21:00;;;;;;;17.95;3.60;;;;;;;17.26;54.58;99802.84;5082707;28;20103;-69
2022/05/14 06:23:26;;;;;;;20.13;4.32;;;;;;;17.41;53.65;99813.56;5082638;28;20032;-70
2022/05/14 06:25:51;;;;;;;22.65;4.38;;;;;;;17.71;53.70;99805.16;5082572;28;20024;-70
2022/05/14 06:28:16;;;;;;;15.90;3.45;;;;;;;17.80;51.52;99782.84;5082782;28;20046;-71
2022/05/14 06:30:43;;;;;;;15.75;3.33;;;;;;;17.90;51.46;99799.84;5082629;28;20514;-70
2022/05/14 06:33:09;;;;;;;14.32;3.80;;;;;;;18.03;51.35;99807.97;5082757;28;20076;-70
2022/05/14 06:35:37;;;;;;;15.98;3.25;;;;;;;17.94;51.01;99809.28;5082498;28;20020;-70
2022/05/14 06:38:04;;;;;;;19.58;3.85;;;;;;;17.60;51.19;99821.41;5082348;28;20084;-70
2022/05/14 06:40:31;;;;;;;22.17;3.38;;;;;;;17.40;51.17;99835.44;5082537;28;20027;-70
2022/05/14 06:42:56;;;;;;;17.63;3.80;;;;;;;17.05;51.26;99831.72;5082522;28;20040;-70
2022/05/14 06:45:22;;;;;;;13.98;3.28;;;;;;;16.57;52.28;99828.56;5082536;28;20036;-70
2022/05/14 06:47:47;;;;;;;22.70;4.28;;;;;;;16.16;52.87;99832.00;5082711;28;20028;-70
2022/05/14 06:50:13;;;;;;;11.18;3.42;;;;;;;15.84;53.59;99806.19;5082734;28;20080;-69
2022/05/14 06:52:45;;;;;;;17.98;3.70;;;;;;;15.85;53.50;99832.28;5086452;28;20021;-69
2022/05/14 06:55:14;;;;;;;14.18;3.08;;;;;;;15.75;53.94;99854.50;5086684;28;20032;-69
2022/05/14 06:57:41;;;;;;;17.35;2.90;;;;;;;15.66;54.65;99847.00;5086419;28;20029;-69
2022/05/14 07:00:07;;;;;;;18.13;4.18;;;;;;;15.61;54.99;99840.19;5086823;28;20035;-69
2022/05/14 07:02:34;;;;;;;15.27;3.75;;;;;;;15.59;54.75;99846.41;5068214;28;20575;-69
2022/05/14 07:07:44;;;;;;;18.73;3.70;;;;;;;15.54;54.53;99851.81;5086575;28;20126;-68
2022/05/14 07:10:09;;;;;;;7.13;2.25;;;;;;;15.57;54.63;99841.25;5086387;28;20037;-69
2022/05/14 07:12:36;;;;;;;18.10;3.75;;;;;;;15.71;54.23;99843.31;5086216;28;20024;-68
2022/05/14 07:15:02;;;;;;;15.18;3.58;;;;;;;15.95;53.76;99850.25;5086305;28;20029;-69
2022/05/14 07:17:27;;;;;;;12.13;2.70;;;;;;;16.46;53.65;99868.31;5068256;28;20054;-69
2022/05/14 07:19:52;;;;;;;10.35;2.65;;;;;;;16.82;52.05;99872.06;5068338;28;20111;-68
2022/05/14 07:22:18;;;;;;;10.80;2.58;;;;;;;16.94;49.72;99865.41;5086015;28;20104;-69
2022/05/14 07:24:45;;;;;;;12.70;2.45;;;;;;;16.89;49.77;99876.13;5086044;28;20028;-70
2022/05/14 07:27:11;;;;;;;9.32;2.40;;;;;;;17.24;49.25;99887.78;5085659;28;20056;-69
2022/05/14 07:29:40;;;;;;;7.80;2.17;;;;;;;17.65;47.56;99882.38;5085943;28;20037;-70
2022/05/14 07:32:08;;;;;;;7.72;2.40;;;;;;;17.91;46.93;99897.84;5067802;28;20016;-70
2022/05/14 07:34:33;;;;;;;13.43;2.22;;;;;;;17.89;45.79;99889.19;5085655;28;20064;-70
2022/05/14 07:37:05;;;;;;;9.57;2.50;;;;;;;18.26;45.00;99889.25;5085837;28;20036;-70
2022/05/14 07:39:37;;;;;;;9.48;2.05;;;;;;;18.27;43.75;99891.78;5085472;28;20048;-70
2022/05/14 07:42:04;;;;;;;;;;;;;;;18.45;44.42;99925.97;5085880;28;20380;-72
2022/05/14 07:44:35;;;;;;;8.10;2.17;;;;;;;18.57;43.89;99919.25;5085783;28;20303;-70
2022/05/14 07:47:01;;;;;;;7.32;2.45;;;;;;;18.69;43.85;99925.69;5085794;28;20052;-69
2022/05/14 07:49:27;;;;;;;8.10;2.00;;;;;;;18.78;43.02;99914.69;5085724;28;20059;-70
2022/05/14 07:51:54;;;;;;;7.57;1.98;;;;;;;18.73;42.50;99921.97;5067502;28;20036;-70
2022/05/14 07:54:21;;;;;;;6.85;2.15;;;;;;;18.79;41.49;99933.94;5067491;28;20055;-70
2022/05/14 07:56:46;;;;;;;7.75;2.40;;;;;;;18.68;41.72;99932.72;5085471;28;20066;-70
2022/05/14 07:59:12;;;;;;;6.05;1.50;;;;;;;18.97;40.61;99923.41;5067563;28;20028;-71
2022/05/14 08:01:40;;;;;;;4.25;1.38;;;;;;;19.12;39.88;99932.31;5085069;28;20358;-70
2022/05/14 08:04:06;;;;;;;6.57;1.50;;;;;;;19.25;38.91;99927.28;5085322;28;20073;-70
2022/05/14 08:06:31;;;;;;;6.78;1.80;;;;;;;19.40;38.58;99925.59;5067272;28;20021;-70
2022/05/14 08:08:57;;;;;;;7.40;1.60;;;;;;;19.56;38.18;99926.50;5084900;28;20111;-70
2022/05/14 08:11:24;;;;;;;7.78;1.35;;;;;;;19.56;38.60;99930.88;5084840;28;20086;-71
2022/05/14 08:13:54;;;;;;;6.10;1.65;;;;;;;19.94;38.16;99948.16;5066824;28;20365;-70
2022/05/14 08:16:22;;;;;;;7.85;1.73;;;;;;;20.00;37.52;99941.72;5085048;28;20029;-69
2022/05/14 08:18:47;;;;;;;8.68;2.08;;;;;;;20.25;37.98;99943.00;5085042;28;20028;-69
2022/05/14 08:26:41;;;;;;;7.03;1.50;;;;;;;20.56;35.77;99947.34;5084678;28;20031;-69
2022/05/14 08:29:06;;;;;;;6.82;1.80;;;;;;;20.52;35.92;99966.09;5067000;28;20025;-69
2022/05/14 08:31:32;;;;;;;5.68;1.17;;;;;;;20.58;35.56;99959.59;5085166;28;20026;-69
2022/05/14 08:33:57;;;;;;;11.23;2.25;;;;;;;20.83;35.08;99969.56;5085034;28;20288;-69
2022/05/14 08:36:22;;;;;;;4.38;1.27;;;;;;;21.02;33.72;99950.88;5084830;28;20035;-70
2022/05/14 08:38:48;;;;;;;7.68;1.55;;;;;;;21.00;32.96;99968.63;5066450;28;20383;-69
2022/05/14 08:41:15;;;;;;;6.30;1.30;;;;;;;20.86;34.70;99973.81;5066429;28;20012;-69
2022/05/14 08:43:49;;;;;;;6.35;1.33;;;;;;;21.12;34.79;99958.28;5067361;28;20029;-70
2022/05/14 08:46:21;;;;;;;4.20;1.40;;;;;;;20.98;33.30;99961.72;5066940;28;20035;-72
2022/05/14 08:48:52;;;;;;;3.55;1.20;;;;;;;20.56;34.52;99981.63;5084831;28;20024;-70
2022/05/14 08:51:24;;;;;;;4.73;1.80;;;;;;;20.76;33.77;99992.84;5084564;28;20031;-69
2022/05/14 08:53:50;;;;;;;7.07;1.65;;;;;;;20.94;34.15;99976.91;5066470;28;20547;-71
2022/05/14 08:56:22;;;;;;;6.60;1.88;;;;;;;21.43;33.54;99993.34;5084526;28;20024;-71
2022/05/14 08:59:12;;;;;;;10.02;1.83;;;;;;;21.91;33.75;99984.31;5084558;28;20032;-72
2022/05/14 09:01:40;;;;;;;6.28;1.30;;;;;;;21.91;32.56;99979.03;5084470;28;20096;-69
2022/05/14 09:04:08;;;;;;;8.07;1.92;;;;;;;21.49;32.40;99998.25;5084359;28;20031;-68
2022/05/14 09:06:35;;;;;;;11.15;1.80;;;;;;;21.33;32.90;99995.72;5084518;28;20020;-69
2022/05/14 09:09:01;;;;;;;4.95;1.15;;;;;;;21.63;33.43;100001.88;5084479;28;20024;-69
2022/05/14 09:11:37;;;;;;;7.25;1.40;;;;;;;21.81;32.89;100009.59;5083896;28;20036;-69
2022/05/14 09:14:18;;;;;;;6.22;1.70;;;;;;;21.97;33.21;100020.06;5083651;28;20052;-69
2022/05/14 09:16:44;;;;;;;6.95;1.70;;;;;;;22.36;32.92;100028.22;5084031;28;20558;-69
2022/05/14 09:19:15;;;;;;;7.68;1.77;;;;;;;22.52;32.15;100025.41;5084197;28;20037;-68
2022/05/14 09:21:49;;;;;;;10.93;1.50;;;;;;;22.77;31.63;100029.97;5084042;28;20065;-68
2022/05/14 09:24:24;;;;;;;7.05;1.67;;;;;;;23.00;31.30;100027.56;5066303;28;20039;-68
2022/05/14 09:26:51;;;;;;;6.78;2.17;;;;;;;23.18;31.01;100029.94;5083968;28;20025;-68
2022/05/14 09:29:29;;;;;;;3.67;1.10;;;;;;;23.23;30.42;100022.53;5084151;28;20048;-68
2022/05/14 09:32:12;;;;;;;5.13;1.55;;;;;;;23.03;30.13;100040.59;5083904;28;20024;-67
2022/05/14 09:34:37;;;;;;;6.63;1.50;;;;;;;23.18;30.64;100040.53;5083787;28;20025;-68
2022/05/14 09:37:07;;;;;;;6.72;2.10;;;;;;;23.15;29.04;100038.94;5083767;28;20026;-67
2022/05/14 09:39:33;;;;;;;5.22;1.20;;;;;;;22.98;29.18;100036.59;5083775;28;20476;-67
2022/05/14 09:42:04;;;;;;;3.65;1.20;;;;;;;22.89;29.06;100046.81;5083459;28;20021;-68
2022/05/14 09:44:47;;;;;;;5.35;1.10;;;;;;;22.64;29.67;100035.22;5083472;28;20043;-68
2022/05/14 09:47:25;;;;;;;6.72;1.50;;;;;;;22.31;30.16;100035.56;5083784;28;20241;-68
2022/05/14 09:49:59;;;;;;;7.53;1.40;;;;;;;22.31;29.87;100047.00;5083552;28;20025;-68
2022/05/14 09:52:30;;;;;;;7.57;1.38;;;;;;;22.00;30.43;100060.38;5083774;28;20020;-68
2022/05/14 09:54:57;;;;;;;6.15;1.20;;;;;;;21.91;29.79;100048.59;5083604;28;20042;-68
2022/05/14 09:57:40;;;;;;;11.93;1.70;;;;;;;21.60;30.60;100037.22;5083136;28;20055;-68
2022/05/14 10:00:25;;;;;;;3.05;1.48;;;;;;;21.22;30.47;100049.16;5083581;28;20047;-68
2022/05/14 10:03:18;;;;;;;5.03;1.02;;;;;;;21.12;31.26;100051.47;5083585;28;20068;-69
2022/05/14 10:06:01;;;;;;;4.65;1.15;;;;;;;21.07;31.41;100044.78;5083091;28;20064;-70
2022/05/14 10:08:35;;;;;;;5.90;1.52;;;;;;;20.75;31.88;100066.78;5083080;28;20139;-70
2022/05/14 10:11:07;;;;;;;7.93;1.40;;;;;;;20.69;32.22;100052.13;5083093;28;20028;-69
2022/05/14 10:13:35;;;;;;;5.38;1.45;;;;;;;21.00;31.45;100055.69;5083166;28;20035;-70
2022/05/14 10:16:07;;;;;;;4.80;1.42;;;;;;;21.33;30.66;100067.00;5082539;28;20027;-72
2022/05/14 10:18:55;;;;;;;5.22;1.23;;;;;;;21.21;30.87;100078.28;5083233;28;20031;-71
2022/05/14 10:21:58;;;;;;;4.43;1.10;;;;;;;21.03;31.62;100071.34;5071747;28;20040;-70
2022/05/14 10:27:53;;;;;;;5.73;1.63;;;;;;;21.36;31.62;100077.38;5082904;28;20039;-71
2022/05/14 10:30:27;;;;;;;13.45;2.35;;;;;;;21.34;30.96;100067.84;5083087;28;20432;-70
2022/05/14 10:33:01;;;;;;;2.90;1.00;;;;;;;21.48;30.49;100075.81;5083047;28;20020;-71
2022/05/14 10:35:47;;;;;;;5.03;1.20;;;;;;;21.45;29.63;100062.78;5082697;28;20113;-70
2022/05/14 10:38:21;;;;;;;5.57;1.30;;;;;;;21.14;29.17;100075.13;5082721;28;20094;-74
2022/05/14 10:40:59;;;;;;;6.05;1.20;;;;;;;20.51;30.29;100086.50;5082661;28;20075;-73
2022/05/14 10:43:41;;;;;;;3.95;1.27;;;;;;;20.31;31.15;100095.53;5082606;28;20028;-71
2022/05/14 10:46:10;;;;;;;5.57;1.08;;;;;;;20.53;31.28;100100.47;5082621;28;20025;-72
2022/05/14 10:48:57;;;;;;;6.47;1.27;;;;;;;20.53;31.08;100107.53;5082678;28;20477;-70
2022/05/14 10:51:27;;;;;;;3.80;1.48;;;;;;;20.73;30.79;100109.06;5082710;28;20208;-70
2022/05/14 10:53:53;;;;;;;4.80;1.42;;;;;;;20.43;31.65;100110.66;5082883;28;20048;-70
2022/05/14 10:56:24;;;;;;;5.70;1.23;;;;;;;20.12;31.76;100117.63;5082675;28;20028;-71
2022/05/14 10:59:28;;;;;;;8.63;1.90;;;;;;;19.58;31.87;100118.59;5064793;28;20020;-72
2022/05/14 11:01:53;;;;;;;6.50;1.23;;;;;;;19.05;32.74;100135.19;5070120;28;20033;-70
2022/05/14 11:04:21;;;;;;;4.15;1.00;;;;;;;18.80;33.33;100133.72;5082804;28;20352;-70
2022/05/14 11:07:03;;;;;;;7.13;1.20;;;;;;;18.41;33.90;100134.66;5082454;28;20024;-71
2022/05/14 11:09:41;;;;;;;6.22;1.08;;;;;;;18.08;34.13;100131.66;5082746;28;20024;-70
2022/05/14 11:12:32;;;;;;;3.80;1.40;;;;;;;17.77;33.74;100140.03;5082613;28;20025;-70
2022/05/14 11:14:59;;;;;;;4.30;1.27;;;;;;;17.53;34.59;100138.38;5070376;28;20043;-71
2022/05/14 11:17:26;;;;;;;5.28;1.25;;;;;;;17.39;35.05;100144.22;5082425;28;20059;-72
2022/05/14 11:20:14;;;;;;;8.52;1.17;;;;;;;17.21;35.66;100138.81;5082369;28;20028;-72
2022/05/14 11:22:42;;;;;;;9.25;1.60;;;;;;;17.01;35.29;100144.84;5082700;28;20033;-72
2022/05/14 11:25:28;;;;;;;6.93;1.40;;;;;;;16.66;35.43;100150.50;5082789;28;20024;-72
2022/05/14 11:28:00;;;;;;;6.15;1.50;;;;;;;16.31;36.97;100140.44;5064347;28;20031;-71
2022/05/14 11:30:54;;;;;;;6.85;1.70;;;;;;;16.29;37.65;100165.84;5082635;28;20100;-71
2022/05/14 11:33:25;;;;;;;6.28;1.30;;;;;;;16.26;38.26;100173.81;5080021;28;20028;-73
2022/05/14 11:35:54;;;;;;;9.57;2.15;;;;;;;16.10;38.68;100178.75;5082440;28;20030;-71
2022/05/14 11:38:26;;;;;;;9.50;1.63;;;;;;;15.89;39.26;100173.31;5085442;28;20076;-73
2022/05/14 11:41:14;;;;;;;;;;;;;;;15.73;39.59;100171.22;5068372;28;20063;-73
2022/05/14 11:43:44;;;;;;;9.20;2.45;;;;;;;15.30;40.84;100189.19;5076798;28;20411;-73
2022/05/14 11:46:28;;;;;;;6.47;1.77;;;;;;;15.09;41.81;100186.34;5085931;28;20025;-72
2022/05/14 11:48:55;;;;;;;8.93;1.98;;;;;;;14.95;42.54;100198.97;5067708;28;20025;-73
2022/05/14 11:51:40;;;;;;;8.57;1.80;;;;;;;14.82;42.39;100204.59;5085674;28;20042;-73
2022/05/14 11:54:12;;;;;;;10.07;2.10;;;;;;;14.75;43.33;100209.09;5086071;28;20456;-73
2022/05/14 11:56:44;;;;;;;5.43;1.40;;;;;;;14.75;43.64;100203.00;5085755;28;20031;-73